Stevens Point, WI (54481)

1:10 PM CDT on July 27, 2016 (GMT -0500)
2nd Street North | | Change Station

Elev 1115 ft 44.54 °N, 89.59 °W | Updated 3 minutes ago

Clear
Clear
80.8 °F
Feels Like 83 °F
N
1.2
Wind Variable Wind from WNW
Gusts 4.3 mph

Today
High -- | Low -- °F
--% Chance of Precip.
Yesterday
High -- | Low -- °F
Precip. -- in
Pressure 30.02 in
Visibility 10.0 miles
Clouds Clear
Heat Index 83 °F
Dew Point 67 °F
Humidity 62%
Rainfall 0.04 in
Snow Depth Not available.
5:40 AM 8:28 PM
Last Quarter, 41% visible
METAR KSTE 271755Z AUTO 11006KT 10SM CLR 25/19 A3002 RMK AO2 60004 T02450190 10260 20185
Pressure 30.02 in
Visibility 10.0 miles
Clouds Clear
Heat Index 83 °F
Dew Point 67 °F
Humidity 62%
Rainfall 0.04 in
Snow Depth Not available.
5:40 AM 8:28 PM
Last Quarter, 41% visible
METAR KSTE 271755Z AUTO 11006KT 10SM CLR 25/19 A3002 RMK AO2 60004 T02450190 10260 20185

10-Day Weather Forecast

Almanac

Astronomy

Jul. 27, 2016 Rise Set
Actual Time
Civil Twilight
Nautical Twilight
Astronomical Twilight
Moon
Length of Visible Light
Length of Day
Tomorrow will be .
, % of the Moon is Illuminated

Today's Extremes

State Highs State Lows

Community

WunderPhotos

Upload Photos

1,927,892 photos uploaded!

WunderBlog® & News

Nearby

Air Quality

  Air Quality AQ Index Pollutant
Not available.

Snow Depth

Station Depth Elevation

Earthquake Activity

City Distance Mag. Time & Date
Minimum magnitude displayed is 2.5.

Coastal Water Temperatures

Place Temperature

Stations

Nearby Weather Stations

Station Location Temp. Windchill Dew Point Humidity Wind Precip. Elev Updated Type
                   

Watches & Warnings

There are currently no watches in effect.